Time;durP1;ratioP1;P1;durP2;ratioP2;P2;SDS_P1;SDS_P2;PMS_P1;PMS_P2;Temp;Humidity;BMP_temperature;BMP_pressure;BME280_temperature;BME280_humidity;BME280_pressure;Samples;Min_cycle;Max_cycle;Signal;HPM_P1;HPM_P2
2019/09/09 00:02:14;;;;;;;17.6;16;;;;;;;11.03;100;958.5486;;;;
2019/09/09 00:04:39;;;;;;;17.9;16.3;;;;;;;11.06;100;958.514;;;;
2019/09/09 00:07:04;;;;;;;16.7;15.2;;;;;;;11;100;958.5009;;;;
2019/09/09 00:09:29;;;;;;;18.1;16.4;;;;;;;11.09;100;958.4877;;;;
2019/09/09 00:11:54;;;;;;;18.2;16.5;;;;;;;11.07;100;958.5422;;;;
2019/09/09 00:14:20;;;;;;;18.8;17.2;;;;;;;11.12;100;958.5516;;;;
2019/09/09 00:16:45;;;;;;;18.9;17.2;;;;;;;11.12;100;958.6332;;;;
2019/09/09 00:19:10;;;;;;;19.7;18;;;;;;;11.11;100;958.6503;;;;
2019/09/09 00:21:35;;;;;;;18.5;16.8;;;;;;;11.15;100;958.6925;;;;
2019/09/09 00:24:00;;;;;;;18.6;16.9;;;;;;;11.12;100;958.7271;;;;
2019/09/09 00:26:25;;;;;;;19.1;17.4;;;;;;;11.27;100;958.6795;;;;
2019/09/09 00:28:51;;;;;;;20;18.2;;;;;;;11.28;100;958.733;;;;
2019/09/09 00:31:16;;;;;;;18.5;16.9;;;;;;;11.18;100;958.7548;;;;
2019/09/09 00:33:41;;;;;;;18.6;17;;;;;;;11.13;100;958.7711;;;;
2019/09/09 00:36:06;;;;;;;19.2;17.5;;;;;;;11.04;100;958.748;;;;
2019/09/09 00:38:31;;;;;;;18.8;17.2;;;;;;;11.08;100;958.7233;;;;
2019/09/09 00:40:56;;;;;;;19.2;17.5;;;;;;;11.02;100;958.7117;;;;
2019/09/09 00:43:22;;;;;;;21;19;;;;;;;11.09;100;958.7037;;;;
2019/09/09 00:45:47;;;;;;;20.3;18.3;;;;;;;11.17;100;958.7034;;;;
2019/09/09 00:48:12;;;;;;;20.2;18.4;;;;;;;11.19;100;958.7536;;;;
2019/09/09 00:50:38;;;;;;;19.5;17.8;;;;;;;11.12;100;958.7148;;;;
2019/09/09 00:53:03;;;;;;;18.8;17;;;;;;;11.16;100;958.7726;;;;
2019/09/09 00:55:28;;;;;;;19.8;18.1;;;;;;;11.19;100;958.7609;;;;
2019/09/09 00:57:53;;;;;;;19.7;17.9;;;;;;;11.21;100;958.7381;;;;
2019/09/09 01:00:18;;;;;;;20.4;18.5;;;;;;;11.24;100;958.6986;;;;
2019/09/09 01:02:43;;;;;;;18.9;17.3;;;;;;;11.23;100;958.6464;;;;
2019/09/09 01:05:09;;;;;;;20;18.1;;;;;;;11.2;100;958.7087;;;;
2019/09/09 01:07:34;;;;;;;20.6;18.8;;;;;;;11.17;100;958.6365;;;;
2019/09/09 01:09:59;;;;;;;19.8;18;;;;;;;11.17;100;958.6561;;;;
2019/09/09 01:12:24;;;;;;;18.7;17.1;;;;;;;11.21;100;958.6199;;;;
2019/09/09 01:14:49;;;;;;;18.4;16.8;;;;;;;11.09;100;958.5733;;;;
2019/09/09 01:17:14;;;;;;;18.6;16.9;;;;;;;11.17;100;958.6186;;;;
2019/09/09 01:19:40;;;;;;;18.9;17.2;;;;;;;11.2;100;958.5995;;;;
2019/09/09 01:22:05;;;;;;;18.8;17.1;;;;;;;11.28;100;958.6032;;;;
2019/09/09 01:24:31;;;;;;;17.3;15.7;;;;;;;11.34;100;958.6241;;;;
2019/09/09 01:26:56;;;;;;;17.4;15.8;;;;;;;11.31;100;958.5906;;;;
2019/09/09 01:29:22;;;;;;;17.1;15.6;;;;;;;11.34;100;958.5192;;;;
2019/09/09 01:31:47;;;;;;;18.3;16.6;;;;;;;11.28;100;958.5608;;;;
2019/09/09 01:34:12;;;;;;;18.9;17.2;;;;;;;11.26;100;958.584;;;;
2019/09/09 01:36:37;;;;;;;17.1;15.6;;;;;;;11.17;100;958.6129;;;;
2019/09/09 01:39:02;;;;;;;17.6;16.1;;;;;;;11.27;100;958.5653;;;;
2019/09/09 01:41:27;;;;;;;17.1;15.4;;;;;;;11.25;100;958.5759;;;;
2019/09/09 01:43:53;;;;;;;13.3;12.1;;;;;;;11.12;100;958.5647;;;;
2019/09/09 01:46:18;;;;;;;13.5;12.3;;;;;;;11.18;100;958.52;;;;
2019/09/09 01:48:43;;;;;;;14.1;12.8;;;;;;;11.23;100;958.5094;;;;
2019/09/09 01:51:09;;;;;;;12;10.9;;;;;;;11.24;100;958.5453;;;;
2019/09/09 01:53:34;;;;;;;11.5;10.4;;;;;;;11.12;100;958.5076;;;;
2019/09/09 01:55:59;;;;;;;13;11.7;;;;;;;11.03;100;958.4036;;;;
2019/09/09 01:58:24;;;;;;;13;11.8;;;;;;;11.01;100;958.3561;;;;
2019/09/09 02:00:50;;;;;;;12.2;11;;;;;;;11.06;100;958.3265;;;;
2019/09/09 02:03:15;;;;;;;12.8;11.6;;;;;;;11.06;100;958.3347;;;;
2019/09/09 02:05:41;;;;;;;12.3;11.2;;;;;;;11;100;958.2996;;;;
2019/09/09 02:08:06;;;;;;;10.8;9.9;;;;;;;10.97;100;958.3113;;;;
2019/09/09 02:10:31;;;;;;;12.1;10.9;;;;;;;10.97;100;958.3553;;;;
2019/09/09 02:12:56;;;;;;;10.5;9.6;;;;;;;10.85;100;958.3836;;;;
2019/09/09 02:15:22;;;;;;;12.1;11;;;;;;;10.9;100;958.4073;;;;
2019/09/09 02:17:47;;;;;;;10.6;9.6;;;;;;;10.91;100;958.3715;;;;
2019/09/09 02:20:12;;;;;;;11.8;10.6;;;;;;;10.84;100;958.3917;;;;
2019/09/09 02:22:37;;;;;;;13.9;12.5;;;;;;;10.84;100;958.3974;;;;
2019/09/09 02:25:02;;;;;;;12.9;11.8;;;;;;;10.87;100;958.3995;;;;
2019/09/09 02:27:28;;;;;;;12.6;11.5;;;;;;;10.81;100;958.3969;;;;
2019/09/09 02:29:53;;;;;;;12;10.9;;;;;;;10.76;100;958.3691;;;;
2019/09/09 02:32:18;;;;;;;12.3;11.1;;;;;;;10.82;100;958.3701;;;;
2019/09/09 02:34:43;;;;;;;12.4;11.3;;;;;;;10.85;100;958.3681;;;;
2019/09/09 02:37:08;;;;;;;13.9;12.6;;;;;;;10.8;100;958.3373;;;;
2019/09/09 02:39:33;;;;;;;13.2;12;;;;;;;10.83;100;958.3286;;;;
2019/09/09 02:41:58;;;;;;;13.8;12.6;;;;;;;10.87;100;958.3033;;;;
2019/09/09 02:44:23;;;;;;;12.7;11.6;;;;;;;10.69;100;958.3102;;;;
2019/09/09 02:46:49;;;;;;;13.1;11.9;;;;;;;10.82;100;958.3611;;;;
2019/09/09 02:49:14;;;;;;;13.7;12.4;;;;;;;10.74;100;958.3605;;;;
2019/09/09 02:51:39;;;;;;;14.8;13.4;;;;;;;10.78;100;958.3794;;;;
2019/09/09 02:54:04;;;;;;;14.8;13.5;;;;;;;10.81;100;958.4051;;;;
2019/09/09 02:56:29;;;;;;;14.6;13.3;;;;;;;10.79;100;958.3647;;;;
2019/09/09 02:58:54;;;;;;;12.6;11.5;;;;;;;10.78;100;958.3638;;;;
2019/09/09 03:01:20;;;;;;;12.7;11.5;;;;;;;10.8;100;958.3606;;;;
2019/09/09 03:03:45;;;;;;;12.2;11.1;;;;;;;10.84;100;958.368;;;;
2019/09/09 03:06:10;;;;;;;11.6;10.5;;;;;;;10.79;100;958.3312;;;;
2019/09/09 03:08:35;;;;;;;11.4;10.4;;;;;;;10.75;100;958.3186;;;;
2019/09/09 03:11:01;;;;;;;11.6;10.5;;;;;;;10.64;100;958.2947;;;;
2019/09/09 03:13:26;;;;;;;12.3;11.2;;;;;;;10.6;100;958.2842;;;;
2019/09/09 03:15:52;;;;;;;11.3;10.3;;;;;;;10.61;100;958.2859;;;;
2019/09/09 03:18:17;;;;;;;12.4;11.2;;;;;;;10.73;100;958.2553;;;;
2019/09/09 03:20:42;;;;;;;12.1;11;;;;;;;10.67;100;958.2683;;;;
2019/09/09 03:23:08;;;;;;;11.7;10.6;;;;;;;10.69;100;958.2352;;;;
2019/09/09 03:25:33;;;;;;;12.6;11.4;;;;;;;10.67;100;958.1917;;;;
2019/09/09 03:27:58;;;;;;;11.8;10.6;;;;;;;10.73;100;958.2015;;;;
2019/09/09 03:30:24;;;;;;;10.9;9.9;;;;;;;10.76;100;958.2428;;;;
2019/09/09 03:32:49;;;;;;;11.2;10.2;;;;;;;10.8;100;958.2498;;;;
2019/09/09 03:35:15;;;;;;;11.3;10.3;;;;;;;10.8;100;958.2257;;;;
2019/09/09 03:37:40;;;;;;;10.3;9.4;;;;;;;10.74;100;958.2198;;;;
2019/09/09 03:40:05;;;;;;;10.1;9.2;;;;;;;10.64;100;958.2555;;;;
2019/09/09 03:42:30;;;;;;;11.8;10.7;;;;;;;10.73;100;958.1909;;;;
2019/09/09 03:44:56;;;;;;;11.3;10.3;;;;;;;10.65;100;958.1556;;;;
2019/09/09 03:47:21;;;;;;;12.1;11;;;;;;;10.79;100;958.147;;;;
2019/09/09 03:49:46;;;;;;;11.3;10.3;;;;;;;10.76;100;958.1694;;;;
2019/09/09 03:52:11;;;;;;;11.8;10.8;;;;;;;10.78;100;958.2073;;;;
2019/09/09 03:54:36;;;;;;;11.6;10.6;;;;;;;10.77;100;958.207;;;;
2019/09/09 03:57:02;;;;;;;10.9;9.9;;;;;;;10.71;100;958.2324;;;;
2019/09/09 03:59:27;;;;;;;12;10.9;;;;;;;10.75;100;958.2175;;;;
2019/09/09 04:02:27;;;;;;;12.6;11.4;;;;;;;10.77;100;958.2522;;;;
2019/09/09 04:04:52;;;;;;;11.8;10.7;;;;;;;10.75;100;958.2606;;;;
2019/09/09 04:07:17;;;;;;;10.4;9.4;;;;;;;10.69;100;958.2776;;;;
2019/09/09 04:09:42;;;;;;;10;9.2;;;;;;;10.74;100;958.2932;;;;
2019/09/09 04:12:07;;;;;;;10.2;9.3;;;;;;;10.72;100;958.2463;;;;
2019/09/09 04:14:32;;;;;;;11.1;10.1;;;;;;;10.85;100;958.3005;;;;
2019/09/09 04:16:57;;;;;;;10;9.1;;;;;;;10.83;100;958.2449;;;;
2019/09/09 04:19:22;;;;;;;9.5;8.7;;;;;;;10.8;100;958.2547;;;;
2019/09/09 04:21:47;;;;;;;10.1;9.2;;;;;;;10.84;100;958.2425;;;;
2019/09/09 04:24:12;;;;;;;10.3;9.4;;;;;;;10.88;100;958.252;;;;
2019/09/09 04:26:37;;;;;;;9.3;8.5;;;;;;;10.92;100;958.1889;;;;
2019/09/09 04:29:03;;;;;;;9.5;8.7;;;;;;;10.78;100;958.1397;;;;
2019/09/09 04:31:28;;;;;;;9.7;8.7;;;;;;;10.84;100;958.214;;;;
2019/09/09 04:33:53;;;;;;;9.1;8.3;;;;;;;10.88;100;958.2178;;;;
2019/09/09 04:36:18;;;;;;;9.2;8.4;;;;;;;10.87;100;958.2063;;;;
2019/09/09 04:38:43;;;;;;;9.4;8.6;;;;;;;10.78;100;958.1161;;;;
2019/09/09 04:41:08;;;;;;;7.9;7.3;;;;;;;10.75;100;958.1213;;;;
2019/09/09 04:43:33;;;;;;;8.6;7.9;;;;;;;10.8;100;958.0725;;;;
2019/09/09 04:45:59;;;;;;;8.8;8;;;;;;;10.76;100;958.0871;;;;
2019/09/09 04:48:24;;;;;;;7.6;7;;;;;;;10.83;100;958.1138;;;;
2019/09/09 04:50:49;;;;;;;8.7;7.9;;;;;;;10.82;100;958.0765;;;;
2019/09/09 04:53:15;;;;;;;8.9;8.1;;;;;;;10.76;100;958.0928;;;;
2019/09/09 04:55:40;;;;;;;8.8;8;;;;;;;10.73;100;958.0989;;;;
2019/09/09 04:58:05;;;;;;;7.7;7;;;;;;;10.82;100;958.1378;;;;
2019/09/09 05:00:30;;;;;;;8.7;7.9;;;;;;;10.84;100;958.2017;;;;
2019/09/09 05:02:55;;;;;;;8.5;7.7;;;;;;;10.89;100;958.1717;;;;
2019/09/09 05:05:20;;;;;;;8.8;8;;;;;;;10.91;100;958.2166;;;;
2019/09/09 05:07:45;;;;;;;9.5;8.7;;;;;;;10.84;100;958.2262;;;;
2019/09/09 05:10:10;;;;;;;10.2;9.2;;;;;;;10.85;100;958.2198;;;;
2019/09/09 05:12:35;;;;;;;9.8;9;;;;;;;10.9;100;958.2491;;;;
2019/09/09 05:15:01;;;;;;;9.9;8.9;;;;;;;10.84;100;958.1797;;;;
2019/09/09 05:17:26;;;;;;;9.7;8.9;;;;;;;10.87;100;958.265;;;;
2019/09/09 05:19:51;;;;;;;10.4;9.5;;;;;;;10.87;100;958.2487;;;;
2019/09/09 05:22:16;;;;;;;11.5;10.5;;;;;;;10.92;100;958.2231;;;;
2019/09/09 05:24:41;;;;;;;10.7;9.7;;;;;;;10.89;100;958.2541;;;;
2019/09/09 05:27:06;;;;;;;10.1;9.3;;;;;;;10.95;100;958.2916;;;;
2019/09/09 05:31:27;;;;;;;10.2;9.4;;;;;;;10.92;100;958.2773;;;;
2019/09/09 05:33:52;;;;;;;11.3;10.3;;;;;;;10.98;100;958.2733;;;;
2019/09/09 05:36:17;;;;;;;11.3;10.2;;;;;;;10.95;100;958.2558;;;;
2019/09/09 05:38:43;;;;;;;11.9;10.7;;;;;;;11;100;958.2938;;;;
2019/09/09 05:41:08;;;;;;;11;10;;;;;;;10.99;100;958.2473;;;;
2019/09/09 05:43:33;;;;;;;12.8;11.5;;;;;;;10.95;100;958.2875;;;;
2019/09/09 05:45:58;;;;;;;11.6;10.6;;;;;;;10.95;100;958.3315;;;;
2019/09/09 05:48:23;;;;;;;11.3;10.3;;;;;;;10.88;100;958.3189;;;;
2019/09/09 05:50:48;;;;;;;12.2;11.1;;;;;;;10.89;100;958.3641;;;;
2019/09/09 05:53:13;;;;;;;13.4;12.2;;;;;;;10.84;100;958.3819;;;;
2019/09/09 05:55:38;;;;;;;12.5;11.3;;;;;;;10.99;100;958.4226;;;;
2019/09/09 05:58:03;;;;;;;12.9;11.7;;;;;;;10.97;100;958.4149;;;;
2019/09/09 06:00:28;;;;;;;13.3;12.1;;;;;;;11.04;100;958.3982;;;;
2019/09/09 06:02:53;;;;;;;12.8;11.6;;;;;;;11.08;100;958.4395;;;;
2019/09/09 06:05:19;;;;;;;13.3;12.1;;;;;;;11;100;958.4479;;;;
2019/09/09 06:07:44;;;;;;;14.8;13.5;;;;;;;10.99;100;958.4397;;;;
2019/09/09 06:10:09;;;;;;;15;13.5;;;;;;;10.94;100;958.4666;;;;
2019/09/09 06:12:34;;;;;;;13.8;12.5;;;;;;;11;100;958.4553;;;;
2019/09/09 06:14:59;;;;;;;13.9;12.5;;;;;;;11.01;100;958.4548;;;;
2019/09/09 06:17:24;;;;;;;14.3;13;;;;;;;10.98;100;958.5228;;;;
2019/09/09 06:19:49;;;;;;;13.9;12.6;;;;;;;10.92;100;958.5195;;;;
2019/09/09 06:22:14;;;;;;;13.7;12.5;;;;;;;10.92;100;958.5226;;;;
2019/09/09 06:24:39;;;;;;;12.8;11.7;;;;;;;10.96;100;958.5526;;;;
2019/09/09 06:27:04;;;;;;;12.5;11.4;;;;;;;10.95;100;958.5319;;;;
2019/09/09 06:29:29;;;;;;;12.5;11.4;;;;;;;10.95;100;958.5803;;;;
2019/09/09 06:31:55;;;;;;;14.8;13.4;;;;;;;11.09;100;958.5887;;;;
2019/09/09 06:34:20;;;;;;;12.8;11.7;;;;;;;11.13;100;958.5789;;;;
2019/09/09 06:36:45;;;;;;;15.1;13.7;;;;;;;11.11;100;958.6038;;;;
2019/09/09 06:39:10;;;;;;;13.8;12.6;;;;;;;11.13;100;958.5803;;;;
2019/09/09 06:41:35;;;;;;;14.4;13;;;;;;;11.15;100;958.5717;;;;
2019/09/09 06:44:00;;;;;;;13.7;12.5;;;;;;;11.18;100;958.5689;;;;
2019/09/09 06:46:26;;;;;;;13.8;12.6;;;;;;;11.2;100;958.553;;;;
2019/09/09 06:48:51;;;;;;;13.2;12;;;;;;;11.13;100;958.5619;;;;
2019/09/09 06:51:17;;;;;;;12.9;11.8;;;;;;;11.16;100;958.5958;;;;
2019/09/09 06:53:42;;;;;;;11.3;10.3;;;;;;;11.19;100;958.5758;;;;
2019/09/09 06:56:07;;;;;;;12.7;11.5;;;;;;;11.17;100;958.6756;;;;
2019/09/09 06:58:32;;;;;;;12.2;11.1;;;;;;;11.18;100;958.67;;;;
2019/09/09 07:00:57;;;;;;;11.3;10.3;;;;;;;11.15;100;958.6206;;;;
2019/09/09 07:03:23;;;;;;;10.4;9.5;;;;;;;11.27;100;958.642;;;;
2019/09/09 07:05:48;;;;;;;10.9;10;;;;;;;11.3;100;958.6213;;;;
2019/09/09 07:08:13;;;;;;;10.2;9.3;;;;;;;11.27;100;958.6909;;;;
2019/09/09 07:10:38;;;;;;;10.4;9.5;;;;;;;11.27;100;958.7301;;;;
2019/09/09 07:13:03;;;;;;;10.7;9.7;;;;;;;11.25;100;958.7374;;;;
2019/09/09 07:15:29;;;;;;;10.5;9.6;;;;;;;11.24;100;958.7117;;;;
2019/09/09 07:17:54;;;;;;;10.8;9.8;;;;;;;11.23;100;958.7263;;;;
2019/09/09 07:20:19;;;;;;;10.7;9.8;;;;;;;11.26;100;958.7277;;;;
2019/09/09 07:22:44;;;;;;;10.6;9.6;;;;;;;11.17;100;958.7352;;;;
2019/09/09 07:25:09;;;;;;;9.9;9;;;;;;;11.18;100;958.7671;;;;
2019/09/09 07:27:34;;;;;;;10.8;9.8;;;;;;;11.2;100;958.8132;;;;
2019/09/09 07:29:59;;;;;;;10.1;9.3;;;;;;;11.23;100;958.7566;;;;
2019/09/09 07:32:25;;;;;;;10.7;9.8;;;;;;;11.22;100;958.7541;;;;
2019/09/09 07:34:50;;;;;;;9.1;8.3;;;;;;;11.34;100;958.7673;;;;
2019/09/09 07:37:15;;;;;;;9.7;8.9;;;;;;;11.32;100;958.7228;;;;
2019/09/09 07:39:40;;;;;;;9.3;8.5;;;;;;;11.34;100;958.7068;;;;
2019/09/09 07:42:05;;;;;;;10.6;9.7;;;;;;;11.36;100;958.7681;;;;
2019/09/09 07:44:30;;;;;;;10.4;9.6;;;;;;;11.33;100;958.7399;;;;
2019/09/09 07:46:55;;;;;;;9.5;8.7;;;;;;;11.37;100;958.7195;;;;
2019/09/09 07:49:20;;;;;;;9.8;9;;;;;;;11.35;100;958.8064;;;;
2019/09/09 07:51:45;;;;;;;10.3;9.4;;;;;;;11.43;100;958.7278;;;;
2019/09/09 07:54:10;;;;;;;8.9;8.2;;;;;;;11.46;100;958.7291;;;;
2019/09/09 07:56:35;;;;;;;9.1;8.3;;;;;;;11.52;100;958.743;;;;
2019/09/09 07:59:00;;;;;;;9.6;8.7;;;;;;;11.52;100;958.7534;;;;
2019/09/09 08:01:26;;;;;;;8.6;7.9;;;;;;;11.55;100;958.78;;;;
2019/09/09 08:03:51;;;;;;;7.5;6.9;;;;;;;11.43;100;958.8502;;;;
2019/09/09 08:06:16;;;;;;;6.8;6.3;;;;;;;11.54;100;958.8344;;;;
2019/09/09 08:08:41;;;;;;;7.1;6.5;;;;;;;11.48;100;958.8392;;;;
2019/09/09 08:11:06;;;;;;;6.3;5.8;;;;;;;11.47;100;958.8628;;;;
2019/09/09 08:13:32;;;;;;;6;5.5;;;;;;;11.57;100;958.9033;;;;
2019/09/09 08:15:57;;;;;;;6.3;5.8;;;;;;;11.61;100;958.8641;;;;
2019/09/09 08:18:23;;;;;;;6.2;5.7;;;;;;;11.57;100;958.9703;;;;
2019/09/09 08:20:48;;;;;;;6.9;6.3;;;;;;;11.6;100;958.9372;;;;
2019/09/09 08:23:13;;;;;;;7;6.4;;;;;;;11.64;100;958.9176;;;;
2019/09/09 08:25:38;;;;;;;6.9;6.3;;;;;;;11.63;100;958.9483;;;;
2019/09/09 08:28:04;;;;;;;6.1;5.6;;;;;;;11.66;100;959.0213;;;;
2019/09/09 08:30:29;;;;;;;7.1;6.4;;;;;;;11.65;100;958.9935;;;;
2019/09/09 08:32:54;;;;;;;6.9;6.3;;;;;;;11.65;100;959.0148;;;;
2019/09/09 08:35:19;;;;;;;7.4;6.8;;;;;;;11.73;100;958.9367;;;;
2019/09/09 08:37:45;;;;;;;6.8;6.3;;;;;;;11.78;100;958.9592;;;;
2019/09/09 08:40:10;;;;;;;6.8;6.2;;;;;;;11.73;100;958.9604;;;;
2019/09/09 08:42:36;;;;;;;6.6;6.1;;;;;;;11.6;100;958.9992;;;;
2019/09/09 08:45:01;;;;;;;6.5;6;;;;;;;11.66;100;959.005;;;;
2019/09/09 08:47:27;;;;;;;6;5.5;;;;;;;11.72;100;959.0181;;;;
2019/09/09 08:49:52;;;;;;;6;5.5;;;;;;;11.54;100;959.0343;;;;
2019/09/09 08:52:17;;;;;;;6.2;5.7;;;;;;;11.52;100;959.0089;;;;
2019/09/09 08:54:42;;;;;;;5.6;5.2;;;;;;;11.58;100;958.9919;;;;
2019/09/09 08:57:08;;;;;;;6.4;5.8;;;;;;;11.64;100;958.9952;;;;
2019/09/09 08:59:33;;;;;;;5.7;5.3;;;;;;;11.72;100;959.0156;;;;
2019/09/09 09:01:59;;;;;;;6.3;5.7;;;;;;;11.74;100;959.0804;;;;
2019/09/09 09:04:24;;;;;;;6.7;6.1;;;;;;;11.76;100;959.0012;;;;
2019/09/09 09:06:49;;;;;;;7.2;6.5;;;;;;;11.83;100;959.0344;;;;
2019/09/09 09:09:14;;;;;;;6.5;5.9;;;;;;;11.81;100;958.9924;;;;
2019/09/09 09:11:40;;;;;;;6.7;6.2;;;;;;;11.87;100;959.0162;;;;
2019/09/09 09:14:05;;;;;;;6.4;5.8;;;;;;;11.87;100;959.0294;;;;
2019/09/09 09:16:30;;;;;;;6.5;6;;;;;;;11.91;100;959.0652;;;;
2019/09/09 09:18:55;;;;;;;6.5;5.9;;;;;;;11.91;100;959.0219;;;;
2019/09/09 09:21:21;;;;;;;6.2;5.6;;;;;;;11.97;100;959.0488;;;;
2019/09/09 09:23:46;;;;;;;6.9;6.3;;;;;;;12.01;100;959.0712;;;;
2019/09/09 09:26:12;;;;;;;5.4;4.9;;;;;;;12.08;100;959.0974;;;;
2019/09/09 09:28:37;;;;;;;5.4;4.9;;;;;;;12.18;99.94629;959.0914;;;;
2019/09/09 09:31:03;;;;;;;4.9;4.5;;;;;;;12.18;98.47949;959.1233;;;;
2019/09/09 09:33:28;;;;;;;4.8;4.4;;;;;;;12.14;100;959.1119;;;;
2019/09/09 09:35:53;;;;;;;5.5;4.2;;;;;;;12.12;100;959.1046;;;;
2019/09/09 09:38:18;;;;;;;3.5;3.2;;;;;;;12.12;100;959.1127;;;;
2019/09/09 09:40:44;;;;;;;3.6;2.9;;;;;;;12.05;100;959.1297;;;;
2019/09/09 09:43:09;;;;;;;3;2.7;;;;;;;12.06;100;959.183;;;;
2019/09/09 09:45:34;;;;;;;2.8;2.5;;;;;;;12.1;99.53711;959.2243;;;;
2019/09/09 09:47:59;;;;;;;3.2;2.9;;;;;;;11.96;100;959.1938;;;;
2019/09/09 09:50:25;;;;;;;2.6;2.4;;;;;;;12.05;100;959.1835;;;;
2019/09/09 09:52:50;;;;;;;2.6;2.4;;;;;;;11.85;100;959.2209;;;;
2019/09/09 09:55:16;;;;;;;4;2.6;;;;;;;11.84;100;959.2752;;;;
2019/09/09 09:57:41;;;;;;;3.2;3;;;;;;;11.82;100;959.303;;;;
2019/09/09 10:00:06;;;;;;;4.1;3.7;;;;;;;11.82;100;959.2964;;;;
2019/09/09 10:02:31;;;;;;;4.1;3.7;;;;;;;11.76;100;959.3086;;;;
2019/09/09 10:04:56;;;;;;;4.1;3.7;;;;;;;11.79;100;959.3491;;;;
2019/09/09 10:07:22;;;;;;;6.7;5;;;;;;;11.69;100;959.3687;;;;
2019/09/09 10:09:47;;;;;;;5.5;5;;;;;;;11.74;100;959.3613;;;;
2019/09/09 10:12:12;;;;;;;6.1;5.5;;;;;;;11.76;100;959.356;;;;
2019/09/09 10:14:38;;;;;;;8;7.3;;;;;;;11.7;100;959.3502;;;;
2019/09/09 10:17:03;;;;;;;8.1;7.3;;;;;;;11.86;100;959.3992;;;;
2019/09/09 10:19:28;;;;;;;8.6;7.8;;;;;;;11.84;100;959.4279;;;;
2019/09/09 10:21:54;;;;;;;9.4;8.5;;;;;;;11.81;100;959.448;;;;
2019/09/09 10:24:19;;;;;;;9.6;8.7;;;;;;;11.84;100;959.4533;;;;
2019/09/09 10:26:44;;;;;;;9.2;8.3;;;;;;;11.82;100;959.4033;;;;
2019/09/09 10:29:09;;;;;;;9.8;8.9;;;;;;;11.82;100;959.3992;;;;
2019/09/09 10:31:34;;;;;;;9.2;8.3;;;;;;;11.86;100;959.3812;;;;
2019/09/09 10:33:59;;;;;;;10.4;9.4;;;;;;;11.89;100;959.4143;;;;
2019/09/09 10:36:24;;;;;;;7;6.4;;;;;;;11.73;100;959.3948;;;;
2019/09/09 10:38:50;;;;;;;6.2;5.6;;;;;;;11.7;100;959.4588;;;;
2019/09/09 10:41:15;;;;;;;5.7;5.2;;;;;;;11.65;100;959.4033;;;;
2019/09/09 10:43:40;;;;;;;5.4;4.9;;;;;;;11.6;100;959.4106;;;;
2019/09/09 10:46:05;;;;;;;5.3;4.8;;;;;;;11.65;100;959.4841;;;;
2019/09/09 10:48:30;;;;;;;5.1;4.7;;;;;;;11.62;100;959.5408;;;;
2019/09/09 10:50:55;;;;;;;5.3;4.9;;;;;;;11.5;100;959.5439;;;;
2019/09/09 10:53:20;;;;;;;6.2;5.7;;;;;;;11.45;100;959.5577;;;;
2019/09/09 10:55:45;;;;;;;5.7;5.2;;;;;;;11.49;100;959.4835;;;;
2019/09/09 10:58:10;;;;;;;5.6;5.1;;;;;;;11.53;100;959.5508;;;;
2019/09/09 11:00:35;;;;;;;6.7;6.1;;;;;;;11.39;100;959.5437;;;;
2019/09/09 11:03:01;;;;;;;5.9;5.4;;;;;;;11.43;100;959.5388;;;;
2019/09/09 11:05:26;;;;;;;6.2;5.6;;;;;;;11.47;100;959.5115;;;;
2019/09/09 11:07:51;;;;;;;6.4;5.8;;;;;;;11.51;100;959.4885;;;;
2019/09/09 11:10:16;;;;;;;7.3;6.6;;;;;;;11.48;100;959.5206;;;;
2019/09/09 11:12:41;;;;;;;7.4;6.5;;;;;;;11.49;100;959.472;;;;
2019/09/09 11:15:06;;;;;;;7.3;6.6;;;;;;;11.65;100;959.4604;;;;
2019/09/09 11:17:31;;;;;;;7.6;6.8;;;;;;;11.7;100;959.4785;;;;
2019/09/09 11:19:56;;;;;;;7.2;6.6;;;;;;;11.71;100;959.4686;;;;
2019/09/09 11:22:21;;;;;;;7.4;6.7;;;;;;;11.66;100;959.4906;;;;
2019/09/09 11:24:46;;;;;;;8.5;7.7;;;;;;;11.66;100;959.5233;;;;
2019/09/09 11:27:11;;;;;;;9.3;8.4;;;;;;;11.77;100;959.5364;;;;
2019/09/09 11:29:36;;;;;;;9.8;8.8;;;;;;;11.87;100;959.5569;;;;
2019/09/09 11:32:02;;;;;;;9.4;8.4;;;;;;;11.83;100;959.5879;;;;
2019/09/09 11:35:25;;;;;;;9;8.2;;;;;;;12.07;100;959.5539;;;;
2019/09/09 11:37:50;;;;;;;9;8.2;;;;;;;12.23;100;959.5795;;;;
2019/09/09 11:40:15;;;;;;;9;8.1;;;;;;;12.32;100;959.5954;;;;
2019/09/09 11:42:40;;;;;;;9.4;8.6;;;;;;;12.38;100;959.6133;;;;
2019/09/09 11:45:06;;;;;;;8.9;8.1;;;;;;;12.38;99.7627;959.5781;;;;
2019/09/09 11:47:31;;;;;;;8.8;7.9;;;;;;;12.36;99.04199;959.5356;;;;
2019/09/09 11:49:56;;;;;;;9.4;8.5;;;;;;;12.33;100;959.5418;;;;
2019/09/09 11:52:21;;;;;;;9.3;8.4;;;;;;;12.24;100;959.5774;;;;
2019/09/09 11:54:46;;;;;;;10.1;9.2;;;;;;;12.19;99.26855;959.5661;;;;
2019/09/09 11:57:11;;;;;;;10.8;9.8;;;;;;;12.18;99.6709;959.5914;;;;
2019/09/09 11:59:36;;;;;;;11;10;;;;;;;12.05;99.15527;959.5944;;;;
2019/09/09 12:02:01;;;;;;;10.8;9.7;;;;;;;12.01;99.50293;959.6364;;;;
2019/09/09 12:04:26;;;;;;;11.7;10.5;;;;;;;11.95;99.06152;959.6038;;;;
2019/09/09 12:06:51;;;;;;;11.6;10.4;;;;;;;11.89;100;959.5842;;;;
2019/09/09 12:09:16;;;;;;;12;10.8;;;;;;;11.81;100;959.6537;;;;
2019/09/09 12:11:41;;;;;;;11.8;10.7;;;;;;;11.92;100;959.7128;;;;
2019/09/09 12:14:06;;;;;;;11.8;10.7;;;;;;;11.92;100;959.7618;;;;
2019/09/09 12:16:31;;;;;;;11.3;10.1;;;;;;;11.95;98.97266;959.7533;;;;
2019/09/09 12:18:57;;;;;;;10.7;9.7;;;;;;;11.91;99.2168;959.7365;;;;
2019/09/09 12:21:22;;;;;;;10.3;9.3;;;;;;;11.9;96.88086;959.6781;;;;
2019/09/09 12:23:47;;;;;;;10;9.1;;;;;;;12.02;97.9707;959.6691;;;;
2019/09/09 12:26:12;;;;;;;9;8.1;;;;;;;12.08;96.10254;959.688;;;;
2019/09/09 12:28:37;;;;;;;10.2;9.2;;;;;;;12.04;98.27734;959.6688;;;;
2019/09/09 12:31:02;;;;;;;9.2;8.4;;;;;;;12.1;97.2041;959.6802;;;;
2019/09/09 12:33:28;;;;;;;9.3;8.2;;;;;;;12.12;97.03711;959.6707;;;;
2019/09/09 12:35:53;;;;;;;8.6;7.7;;;;;;;12.11;96.53613;959.7185;;;;
2019/09/09 12:38:18;;;;;;;8.8;8;;;;;;;12.07;96.83984;959.7361;;;;
2019/09/09 12:40:44;;;;;;;7.7;7;;;;;;;12.2;94.71875;959.714;;;;
2019/09/09 12:43:09;;;;;;;8.2;7.4;;;;;;;12.16;94.52637;959.7455;;;;
2019/09/09 12:45:35;;;;;;;8;7;;;;;;;12.3;93.11133;959.6484;;;;
2019/09/09 12:48:00;;;;;;;8;7.2;;;;;;;12.49;94.19238;959.6825;;;;
2019/09/09 12:50:25;;;;;;;9.2;8.3;;;;;;;12.45;93.59668;959.6976;;;;
2019/09/09 12:52:50;;;;;;;8.3;7.5;;;;;;;12.49;94.36523;959.6964;;;;
2019/09/09 12:55:15;;;;;;;7.3;6.6;;;;;;;12.57;94.04785;959.6353;;;;
2019/09/09 12:57:40;;;;;;;7.3;6.6;;;;;;;12.67;91.63086;959.6502;;;;
2019/09/09 13:00:05;;;;;;;8.1;7.1;;;;;;;12.69;95.34668;959.6538;;;;
2019/09/09 13:02:31;;;;;;;8.1;6.8;;;;;;;12.82;93.58301;959.66;;;;
2019/09/09 13:04:56;;;;;;;7.5;6.7;;;;;;;12.87;91.42969;959.6189;;;;
2019/09/09 13:07:21;;;;;;;7.2;6.5;;;;;;;12.81;88.93848;959.6256;;;;
2019/09/09 13:09:47;;;;;;;8.3;6.6;;;;;;;12.91;90.07129;959.6258;;;;
2019/09/09 13:12:12;;;;;;;7.7;7;;;;;;;12.79;90.90332;959.6359;;;;
2019/09/09 13:14:37;;;;;;;7.4;6.7;;;;;;;12.78;92.42676;959.6245;;;;
2019/09/09 13:17:02;;;;;;;7.9;7.2;;;;;;;12.72;92.23047;959.5609;;;;
2019/09/09 13:19:27;;;;;;;7.3;6.6;;;;;;;12.66;92.9707;959.6241;;;;
2019/09/09 13:21:53;;;;;;;7.4;6.8;;;;;;;12.7;93.91504;959.68;;;;
2019/09/09 13:24:18;;;;;;;7.9;7.2;;;;;;;12.74;93.35742;959.6648;;;;
2019/09/09 13:26:43;;;;;;;7.5;6.5;;;;;;;12.67;90.9248;959.6682;;;;
2019/09/09 13:29:08;;;;;;;8.3;7.5;;;;;;;12.72;91.57031;959.6902;;;;
2019/09/09 13:31:33;;;;;;;7.7;7;;;;;;;12.65;92.80469;959.645;;;;
2019/09/09 13:33:58;;;;;;;8.3;7.5;;;;;;;12.6;93.54688;959.7166;;;;
2019/09/09 13:36:23;;;;;;;7.5;6.8;;;;;;;12.7;90.44531;959.7012;;;;
2019/09/09 13:38:48;;;;;;;7.6;6.8;;;;;;;12.73;90.39258;959.6599;;;;
2019/09/09 13:41:13;;;;;;;8.2;6.8;;;;;;;12.72;90.37891;959.6942;;;;
2019/09/09 13:43:38;;;;;;;7.8;7.1;;;;;;;12.62;92.19727;959.7047;;;;
2019/09/09 13:46:03;;;;;;;7.9;7.1;;;;;;;12.61;90.0791;959.6487;;;;
2019/09/09 13:48:28;;;;;;;7.4;6.7;;;;;;;12.77;91.66309;959.6814;;;;
2019/09/09 13:50:53;;;;;;;7.8;6.8;;;;;;;12.85;88.62598;959.6628;;;;
2019/09/09 13:53:19;;;;;;;7.5;6.8;;;;;;;12.79;90.09375;959.6319;;;;
2019/09/09 13:55:44;;;;;;;9.2;6.9;;;;;;;12.75;90.6416;959.6495;;;;
2019/09/09 13:58:09;;;;;;;8.5;7.2;;;;;;;12.87;90.46875;959.6197;;;;
2019/09/09 14:00:34;;;;;;;8;7.3;;;;;;;12.82;90.57324;959.6264;;;;
2019/09/09 14:02:59;;;;;;;8.1;7.3;;;;;;;12.78;90.33496;959.613;;;;
2019/09/09 14:05:25;;;;;;;7.4;6.7;;;;;;;12.95;89.62793;959.6163;;;;
2019/09/09 14:07:50;;;;;;;7.1;6.4;;;;;;;12.8;87.42285;959.6049;;;;
2019/09/09 14:10:15;;;;;;;7.4;6.8;;;;;;;12.77;90.85352;959.6071;;;;
2019/09/09 14:12:40;;;;;;;8.4;7.2;;;;;;;12.77;90.31934;959.5883;;;;
2019/09/09 14:15:05;;;;;;;8.5;7.6;;;;;;;12.83;91.74414;959.5831;;;;
2019/09/09 14:17:31;;;;;;;7.5;6.8;;;;;;;12.9;91.1123;959.6152;;;;
2019/09/09 14:19:56;;;;;;;7.9;7.2;;;;;;;13.01;89.83887;959.5745;;;;
2019/09/09 14:22:21;;;;;;;8.1;7.3;;;;;;;13.08;90.83594;959.5792;;;;
2019/09/09 14:24:46;;;;;;;8.2;7.4;;;;;;;13.19;88.70605;959.613;;;;
2019/09/09 14:27:12;;;;;;;9;7.8;;;;;;;13.19;89.64453;959.544;;;;
2019/09/09 14:29:37;;;;;;;8;7.2;;;;;;;13.17;88.05273;959.5366;;;;
2019/09/09 14:32:02;;;;;;;8.5;7.6;;;;;;;13.32;87.08691;959.4916;;;;
2019/09/09 14:34:27;;;;;;;7.9;7.1;;;;;;;13.29;85.64551;959.5086;;;;
2019/09/09 14:36:53;;;;;;;8.4;7.6;;;;;;;13.43;86.80762;959.5491;;;;
2019/09/09 14:39:18;;;;;;;8.2;7.4;;;;;;;13.46;87.9248;959.5629;;;;
2019/09/09 14:41:44;;;;;;;8.7;7.8;;;;;;;13.42;85.70508;959.5513;;;;
2019/09/09 14:44:09;;;;;;;8.4;7.6;;;;;;;13.48;86.5752;959.5017;;;;
2019/09/09 14:46:34;;;;;;;8.2;7.4;;;;;;;13.39;87.1709;959.5133;;;;
2019/09/09 14:48:59;;;;;;;8.9;8.1;;;;;;;13.37;87.9209;959.4607;;;;
2019/09/09 14:51:24;;;;;;;8;7.2;;;;;;;13.33;85.54688;959.4998;;;;
2019/09/09 14:53:49;;;;;;;9.4;7.7;;;;;;;13.44;87.57422;959.4467;;;;
2019/09/09 14:56:15;;;;;;;8;7.2;;;;;;;13.44;87.09863;959.4524;;;;
2019/09/09 14:58:40;;;;;;;8.4;7.6;;;;;;;13.43;85.66113;959.4661;;;;